createdAt,value
2022-11-05T00:00:46.711Z,0
2022-11-05T00:01:46.772Z,0
2022-11-05T00:02:46.757Z,0
2022-11-05T00:03:46.844Z,0
2022-11-05T00:04:46.795Z,0
2022-11-05T00:05:46.587Z,0
2022-11-05T00:06:46.842Z,0
2022-11-05T00:07:46.871Z,0
2022-11-05T00:08:46.881Z,0
2022-11-05T00:09:46.924Z,0
2022-11-05T00:10:47.075Z,0
2022-11-05T00:11:46.954Z,0
2022-11-05T00:12:46.715Z,0
2022-11-05T00:13:46.745Z,0
2022-11-05T00:14:47.005Z,0
2022-11-05T00:15:47.040Z,0
2022-11-05T00:16:46.800Z,0
2022-11-05T00:17:46.573Z,0
2022-11-05T00:18:46.840Z,0
2022-11-05T00:19:46.598Z,0
2022-11-05T00:20:47.144Z,0
2022-11-05T00:21:47.160Z,0
2022-11-05T00:22:46.656Z,0
2022-11-05T00:23:46.686Z,0
2022-11-05T00:24:47.213Z,0
2022-11-05T00:25:46.989Z,0
2022-11-05T00:26:47.485Z,0
2022-11-05T00:27:47.027Z,0
2022-11-05T00:28:47.040Z,0
2022-11-05T00:29:47.328Z,0
2022-11-05T00:30:47.355Z,0
2022-11-05T00:31:47.107Z,0
2022-11-05T00:32:47.377Z,0
2022-11-05T00:33:47.145Z,0
2022-11-05T00:34:47.443Z,0
2022-11-05T00:35:47.188Z,0
2022-11-05T00:36:46.955Z,0
2022-11-05T00:37:54.793Z,0
2022-11-05T00:38:47.000Z,0
2022-11-05T00:39:47.537Z,0
2022-11-05T00:40:47.285Z,0
2022-11-05T00:41:47.313Z,0
2022-11-05T00:42:47.910Z,0
2022-11-05T00:43:47.615Z,0
2022-11-05T00:44:47.574Z,0
2022-11-05T00:45:47.391Z,0
2022-11-05T00:46:47.670Z,0
2022-11-05T00:47:47.692Z,0
2022-11-05T00:48:47.198Z,0
2022-11-05T00:49:47.733Z,0
2022-11-05T00:50:47.255Z,0
2022-11-05T00:51:47.517Z,0
2022-11-05T00:52:47.790Z,0
2022-11-05T00:53:47.556Z,0
2022-11-05T00:54:47.612Z,0
2022-11-05T00:55:47.634Z,0
2022-11-05T00:56:47.629Z,0
2022-11-05T00:57:47.889Z,0
2022-11-05T00:58:48.012Z,0
2022-11-05T00:59:47.679Z,0
2022-11-05T01:00:47.992Z,0
2022-11-05T01:01:48.040Z,0
2022-11-05T01:02:48.772Z,0
2022-11-05T01:03:54.482Z,0
2022-11-05T01:04:48.037Z,0
2022-11-05T01:05:48.106Z,0
2022-11-05T01:06:48.082Z,0
2022-11-05T01:07:48.113Z,0
2022-11-05T01:08:47.863Z,0
2022-11-05T01:09:48.132Z,0
2022-11-05T01:10:47.906Z,0
2022-11-05T01:11:47.931Z,0
2022-11-05T01:12:47.945Z,0
2022-11-05T01:13:47.453Z,0
2022-11-05T01:14:48.378Z,0
2022-11-05T01:15:48.289Z,0
2022-11-05T01:16:48.026Z,0
2022-11-05T01:17:48.047Z,0
2022-11-05T01:18:48.078Z,0
2022-11-05T01:19:48.096Z,0
2022-11-05T01:20:48.108Z,0
2022-11-05T01:21:48.384Z,0
2022-11-05T01:22:48.147Z,0
2022-11-05T01:23:48.437Z,0
2022-11-05T01:24:47.927Z,0
2022-11-05T01:25:48.462Z,0
2022-11-05T01:26:48.226Z,0
2022-11-05T01:27:48.505Z,0
2022-11-05T01:28:48.890Z,0
2022-11-05T01:29:48.034Z,0
2022-11-05T01:30:48.859Z,0
2022-11-05T01:31:48.601Z,0
2022-11-05T01:32:48.347Z,0
2022-11-05T01:33:48.385Z,0
2022-11-05T01:34:49.000Z,0
2022-11-05T01:35:48.161Z,0
2022-11-05T01:36:48.689Z,0
2022-11-05T01:37:48.445Z,0
2022-11-05T01:38:48.214Z,0
2022-11-05T01:39:48.489Z,0
2022-11-05T01:40:48.861Z,0
2022-11-05T01:41:48.551Z,0
2022-11-05T01:42:48.813Z,0
2022-11-05T01:43:48.826Z,0
2022-11-05T01:44:49.133Z,0
2022-11-05T01:45:48.864Z,0
2022-11-05T01:46:49.081Z,0
2022-11-05T01:47:48.650Z,0
2022-11-05T01:48:48.671Z,0
2022-11-05T01:49:48.442Z,0
2022-11-05T01:50:48.970Z,0
2022-11-05T01:51:48.728Z,0
2022-11-05T01:52:49.044Z,0
2022-11-05T01:53:49.018Z,0
2022-11-05T01:54:48.802Z,0
2022-11-05T01:55:49.065Z,0
2022-11-05T01:56:49.090Z,0
2022-11-05T01:57:48.845Z,0
2022-11-05T01:58:48.885Z,0
2022-11-05T01:59:48.895Z,0
2022-11-05T02:00:48.677Z,0
2022-11-05T02:01:49.219Z,0
2022-11-05T02:02:50.234Z,0
2022-11-05T02:03:49.235Z,0
2022-11-05T02:04:49.242Z,0
2022-11-05T02:05:49.276Z,0
2022-11-05T02:06:49.327Z,0
2022-11-05T02:07:49.326Z,0
2022-11-05T02:08:49.083Z,0
2022-11-05T02:09:48.845Z,0
2022-11-05T02:10:49.372Z,0
2022-11-05T02:11:48.884Z,0
2022-11-05T02:12:49.153Z,0
2022-11-05T02:13:49.432Z,0
2022-11-05T02:14:49.196Z,0
2022-11-05T02:15:49.213Z,0
2022-11-05T02:16:49.258Z,0
2022-11-05T02:17:49.539Z,0
2022-11-05T02:18:49.642Z,0
2022-11-05T02:19:49.561Z,0
2022-11-05T02:20:55.755Z,0
2022-11-05T02:21:49.062Z,0
2022-11-05T02:22:49.346Z,0
2022-11-05T02:23:49.114Z,0
2022-11-05T02:24:49.400Z,0
2022-11-05T02:25:49.151Z,0
2022-11-05T02:26:49.182Z,0
2022-11-05T02:27:49.229Z,0
2022-11-05T02:28:49.211Z,0
2022-11-05T02:29:49.248Z,0
2022-11-05T02:30:49.809Z,0
2022-11-05T02:31:49.580Z,0
2022-11-05T02:32:49.804Z,0
2022-11-05T02:33:49.852Z,0
2022-11-05T02:34:49.961Z,0
2022-11-05T02:35:49.647Z,0
2022-11-05T02:36:49.908Z,0
2022-11-05T02:37:49.403Z,0
2022-11-05T02:38:49.699Z,0
2022-11-05T02:39:49.742Z,0
2022-11-05T02:40:49.709Z,0
2022-11-05T02:41:50.060Z,0
2022-11-05T02:42:50.010Z,0
2022-11-05T02:43:50.027Z,0
2022-11-05T02:44:49.847Z,0
2022-11-05T02:45:49.837Z,0
2022-11-05T02:46:50.085Z,0
2022-11-05T02:47:49.611Z,0
2022-11-05T02:48:49.360Z,0
2022-11-05T02:49:50.145Z,0
2022-11-05T02:50:50.462Z,0
2022-11-05T02:51:49.933Z,0
2022-11-05T02:52:49.946Z,0
2022-11-05T02:53:50.228Z,0
2022-11-05T02:54:50.258Z,0
2022-11-05T02:55:49.794Z,0
2022-11-05T02:56:50.048Z,0
2022-11-05T02:57:50.319Z,0
2022-11-05T02:58:50.330Z,0
2022-11-05T02:59:50.345Z,0
2022-11-05T03:00:50.108Z,0
2022-11-05T03:01:51.068Z,0
2022-11-05T03:02:50.981Z,0
2022-11-05T03:03:49.983Z,0
2022-11-05T03:04:49.937Z,0
2022-11-05T03:05:50.223Z,0
2022-11-05T03:06:50.800Z,0
2022-11-05T03:07:50.259Z,0
2022-11-05T03:08:50.008Z,0
2022-11-05T03:09:50.039Z,0
2022-11-05T03:10:50.518Z,0
2022-11-05T03:11:50.322Z,0
2022-11-05T03:12:50.092Z,0
2022-11-05T03:13:50.099Z,0
2022-11-05T03:14:50.635Z,0
2022-11-05T03:15:50.663Z,0
2022-11-05T03:16:50.413Z,0
2022-11-05T03:17:50.184Z,0
2022-11-05T03:18:50.348Z,0
2022-11-05T03:19:50.947Z,0
2022-11-05T03:20:50.780Z,0
2022-11-05T03:21:50.521Z,0
2022-11-05T03:22:50.913Z,0
2022-11-05T03:23:50.809Z,0
2022-11-05T03:24:50.848Z,0
2022-11-05T03:25:50.850Z,0
2022-11-05T03:26:50.881Z,0
2022-11-05T03:27:50.381Z,0
2022-11-05T03:28:50.664Z,0
2022-11-05T03:29:50.943Z,0
2022-11-05T03:30:50.704Z,0
2022-11-05T03:31:50.983Z,0
2022-11-05T03:32:50.743Z,0
2022-11-05T03:33:50.771Z,0
2022-11-05T03:34:50.530Z,0
2022-11-05T03:35:50.799Z,0
2022-11-05T03:36:50.559Z,0
2022-11-05T03:37:51.109Z,0
2022-11-05T03:38:51.209Z,0
2022-11-05T03:39:50.877Z,0
2022-11-05T03:40:50.901Z,0
2022-11-05T03:41:51.173Z,0
2022-11-05T03:42:50.932Z,0
2022-11-05T03:43:50.693Z,0
2022-11-05T03:44:51.022Z,0
2022-11-05T03:45:50.996Z,0
2022-11-05T03:46:51.005Z,0
2022-11-05T03:47:51.292Z,0
2022-11-05T03:48:51.280Z,0
2022-11-05T03:49:51.065Z,0
2022-11-05T03:50:51.345Z,0
2022-11-05T03:51:51.105Z,0
2022-11-05T03:52:51.382Z,0
2022-11-05T03:53:51.400Z,0
2022-11-05T03:54:51.801Z,0
2022-11-05T03:55:51.187Z,0
2022-11-05T03:56:51.460Z,0
2022-11-05T03:57:51.483Z,0
2022-11-05T03:58:56.133Z,0
2022-11-05T03:59:51.517Z,0
2022-11-05T04:00:51.034Z,0
2022-11-05T04:01:52.088Z,0
2022-11-05T04:02:52.332Z,0
2022-11-05T04:03:51.339Z,0
2022-11-05T04:04:51.616Z,0
2022-11-05T04:05:51.385Z,0
2022-11-05T04:06:51.650Z,0
2022-11-05T04:07:51.429Z,0
2022-11-05T04:08:51.698Z,0
2022-11-05T04:09:51.716Z,0
2022-11-05T04:10:51.822Z,0
2022-11-05T04:11:51.510Z,0
2022-11-05T04:12:51.781Z,0
2022-11-05T04:13:51.534Z,0
2022-11-05T04:14:51.296Z,0
2022-11-05T04:15:51.826Z,0
2022-11-05T04:16:51.857Z,0
2022-11-05T04:17:51.362Z,0
2022-11-05T04:18:51.373Z,0
2022-11-05T04:19:51.647Z,0
2022-11-05T04:20:51.676Z,0
2022-11-05T04:21:51.952Z,0
2022-11-05T04:22:51.978Z,0
2022-11-05T04:23:51.479Z,0
2022-11-05T04:24:51.997Z,0
2022-11-05T04:25:51.783Z,0
2022-11-05T04:26:52.136Z,0
2022-11-05T04:27:51.822Z,0
2022-11-05T04:28:52.084Z,0
2022-11-05T04:29:51.861Z,0
2022-11-05T04:30:51.595Z,0
2022-11-05T04:31:51.877Z,0
2022-11-05T04:32:52.142Z,0
2022-11-05T04:33:51.919Z,0
2022-11-05T04:34:52.214Z,0
2022-11-05T04:35:51.701Z,0
2022-11-05T04:36:52.269Z,0
2022-11-05T04:37:52.013Z,0
2022-11-05T04:38:52.028Z,0
2022-11-05T04:39:52.039Z,0
2022-11-05T04:40:52.307Z,0
2022-11-05T04:41:52.331Z,0
2022-11-05T04:42:52.556Z,0
2022-11-05T04:43:52.359Z,0
2022-11-05T04:44:52.589Z,0
2022-11-05T04:45:52.413Z,0
2022-11-05T04:46:52.425Z,0
2022-11-05T04:47:51.923Z,0
2022-11-05T04:48:52.479Z,0
2022-11-05T04:49:52.492Z,0
2022-11-05T04:50:52.497Z,0
2022-11-05T04:51:52.271Z,0
2022-11-05T04:52:52.310Z,0
2022-11-05T04:53:52.564Z,0
2022-11-05T04:54:52.319Z,0
2022-11-05T04:55:52.091Z,0
2022-11-05T04:56:52.096Z,0
2022-11-05T04:57:52.636Z,0
2022-11-05T04:58:52.746Z,0
2022-11-05T04:59:52.706Z,0
2022-11-05T05:00:52.609Z,0
2022-11-05T05:01:53.004Z,0
2022-11-05T05:02:52.483Z,0
2022-11-05T05:03:52.742Z,0
2022-11-05T05:04:52.520Z,0
2022-11-05T05:05:59.456Z,0
2022-11-05T05:06:52.679Z,0
2022-11-05T05:07:52.320Z,0
2022-11-05T05:08:52.595Z,0
2022-11-05T05:09:52.859Z,0
2022-11-05T05:10:52.893Z,0
2022-11-05T05:11:52.639Z,0
2022-11-05T05:12:52.669Z,0
2022-11-05T05:13:52.957Z,0
2022-11-05T05:14:53.070Z,0
2022-11-05T05:15:52.977Z,0
2022-11-05T05:16:52.740Z,0
2022-11-05T05:17:53.021Z,0
2022-11-05T05:18:53.607Z,0
2022-11-05T05:19:52.795Z,0
2022-11-05T05:20:52.832Z,0
2022-11-05T05:21:52.668Z,0
2022-11-05T05:22:53.117Z,0
2022-11-05T05:23:53.139Z,0
2022-11-05T05:24:59.367Z,0
2022-11-05T05:25:53.220Z,0
2022-11-05T05:26:52.693Z,0
2022-11-05T05:27:52.961Z,0
2022-11-05T05:28:52.981Z,0
2022-11-05T05:29:52.736Z,0
2022-11-05T05:31:00.058Z,0
2022-11-05T05:31:53.039Z,0
2022-11-05T05:32:53.299Z,0
2022-11-05T05:33:53.093Z,0
2022-11-05T05:34:52.814Z,0
2022-11-05T05:35:53.100Z,0
2022-11-05T05:36:52.860Z,0
2022-11-05T05:37:52.629Z,0
2022-11-05T05:38:52.899Z,0
2022-11-05T05:39:53.438Z,0
2022-11-05T05:40:52.678Z,0
2022-11-05T05:41:53.472Z,0
2022-11-05T05:42:53.225Z,0
2022-11-05T05:43:53.252Z,0
2022-11-05T05:44:53.478Z,0
2022-11-05T05:45:53.289Z,0
2022-11-05T05:46:53.681Z,0
2022-11-05T05:47:53.578Z,0
2022-11-05T05:48:53.345Z,0
2022-11-05T05:49:53.129Z,0
2022-11-05T05:50:53.133Z,0
2022-11-05T05:51:53.410Z,0
2022-11-05T05:52:53.427Z,0
2022-11-05T05:53:53.690Z,0
2022-11-05T05:54:53.457Z,0
2022-11-05T05:55:53.222Z,0
2022-11-05T05:56:53.509Z,0
2022-11-05T05:57:53.771Z,0
2022-11-05T05:58:53.534Z,0
2022-11-05T05:59:53.556Z,0
2022-11-05T06:00:53.853Z,0
2022-11-05T06:01:54.272Z,0
2022-11-05T06:02:54.661Z,4
2022-11-05T06:03:53.896Z,4
2022-11-05T06:04:53.639Z,0
2022-11-05T06:05:53.664Z,4
2022-11-05T06:06:53.428Z,4
2022-11-05T06:07:53.710Z,0
2022-11-05T06:08:54.041Z,4
2022-11-05T06:09:54.005Z,4
2022-11-05T06:10:54.157Z,4
2022-11-05T06:11:53.525Z,8
2022-11-05T06:12:54.048Z,8
2022-11-05T06:13:53.559Z,8
2022-11-05T06:14:53.841Z,12
2022-11-05T06:15:53.596Z,12
2022-11-05T06:16:53.864Z,12
2022-11-05T06:17:53.894Z,16
2022-11-05T06:18:54.432Z,16
2022-11-05T06:19:53.917Z,24
2022-11-05T06:20:54.205Z,28
2022-11-05T06:21:54.208Z,28
2022-11-05T06:22:53.997Z,32
2022-11-05T06:23:54.002Z,36
2022-11-05T06:24:54.012Z,36
2022-11-05T06:25:54.397Z,44
2022-11-05T06:26:54.315Z,48
2022-11-05T06:27:54.337Z,48
2022-11-05T06:28:54.401Z,56
2022-11-05T06:29:54.112Z,60
2022-11-05T06:30:54.400Z,68
2022-11-05T06:31:54.152Z,68
2022-11-05T06:32:53.920Z,76
2022-11-05T06:33:54.212Z,80
2022-11-05T06:34:54.601Z,84
2022-11-05T06:35:54.486Z,92
2022-11-05T06:36:53.719Z,92
2022-11-05T06:37:54.285Z,100
2022-11-05T06:38:53.786Z,104
2022-11-05T06:39:54.561Z,112
2022-11-05T06:40:54.592Z,140
2022-11-05T06:42:24.233Z,168
2022-11-05T06:42:54.602Z,176
2022-11-05T06:43:54.652Z,164
2022-11-05T06:44:54.547Z,160
2022-11-05T06:45:54.404Z,164
2022-11-05T06:46:56.025Z,172
2022-11-05T06:47:54.706Z,172
2022-11-05T06:48:54.523Z,196
2022-11-05T06:49:54.792Z,224
2022-11-05T06:50:54.876Z,228
2022-11-05T06:51:54.258Z,248
2022-11-05T06:52:54.290Z,224
2022-11-05T06:53:54.555Z,192
2022-11-05T06:54:54.338Z,192
2022-11-05T06:55:54.344Z,208
2022-11-05T06:56:54.108Z,212
2022-11-05T06:57:54.891Z,200
2022-11-05T06:58:54.913Z,216
2022-11-05T07:00:04.583Z,244
2022-11-05T07:00:54.743Z,288
2022-11-05T07:01:55.400Z,312
2022-11-05T07:02:54.727Z,304
2022-11-05T07:03:54.737Z,356
2022-11-05T07:04:55.026Z,388
2022-11-05T07:05:54.788Z,440
2022-11-05T07:06:55.155Z,516
2022-11-05T07:07:54.840Z,468
2022-11-05T07:08:54.575Z,340
2022-11-05T07:09:55.117Z,312
2022-11-05T07:10:55.133Z,280
2022-11-05T07:11:55.157Z,256
2022-11-05T07:12:54.920Z,252
2022-11-05T07:13:55.193Z,260
2022-11-05T07:14:54.943Z,272
2022-11-05T07:15:55.222Z,276
2022-11-05T07:16:55.241Z,276
2022-11-05T07:17:55.266Z,316
2022-11-05T07:18:54.776Z,476
2022-11-05T07:19:55.043Z,556
2022-11-05T07:20:55.076Z,396
2022-11-05T07:21:55.062Z,328
2022-11-05T07:22:55.466Z,328
2022-11-05T07:23:54.700Z,312
2022-11-05T07:24:55.408Z,312
2022-11-05T07:25:55.418Z,352
2022-11-05T07:26:55.185Z,380
2022-11-05T07:27:55.020Z,400
2022-11-05T07:28:55.211Z,416
2022-11-05T07:29:54.973Z,324
2022-11-05T07:30:55.501Z,284
2022-11-05T07:31:55.522Z,320
2022-11-05T07:32:55.281Z,380
2022-11-05T07:33:55.565Z,404
2022-11-05T07:34:55.312Z,380
2022-11-05T07:35:55.339Z,392
2022-11-05T07:36:55.364Z,468
2022-11-05T07:37:55.636Z,576
2022-11-05T07:39:02.795Z,696
2022-11-05T07:39:55.675Z,612
2022-11-05T07:40:55.697Z,440
2022-11-05T07:41:55.453Z,328
2022-11-05T07:42:55.732Z,304
2022-11-05T07:43:55.486Z,324
2022-11-05T07:44:55.701Z,352
2022-11-05T07:45:55.530Z,420
2022-11-05T07:46:55.547Z,592
2022-11-05T07:47:55.308Z,788
2022-11-05T07:48:55.822Z,1032
2022-11-05T07:49:55.633Z,984
2022-11-05T07:50:55.866Z,836
2022-11-05T07:51:55.374Z,696
2022-11-05T07:52:55.910Z,452
2022-11-05T07:53:55.685Z,384
2022-11-05T07:54:56.224Z,368
2022-11-05T07:55:55.704Z,364
2022-11-05T07:56:55.991Z,384
2022-11-05T07:57:55.761Z,452
2022-11-05T07:58:55.508Z,580
2022-11-05T07:59:56.035Z,684
2022-11-05T08:00:56.483Z,696
2022-11-05T08:01:56.828Z,816
2022-11-05T08:02:58.601Z,708
2022-11-05T08:03:55.905Z,636
2022-11-05T08:04:55.882Z,572
2022-11-05T08:05:55.904Z,604
2022-11-05T08:06:56.222Z,620
2022-11-05T08:07:55.937Z,612
2022-11-05T08:08:56.373Z,464
2022-11-05T08:09:55.965Z,468
2022-11-05T08:10:56.493Z,504
2022-11-05T08:12:05.843Z,608
2022-11-05T08:12:56.302Z,672
2022-11-05T08:13:56.308Z,656
2022-11-05T08:14:56.055Z,584
2022-11-05T08:15:56.082Z,552
2022-11-05T08:16:56.115Z,536
2022-11-05T08:17:56.119Z,532
2022-11-05T08:18:56.397Z,532
2022-11-05T08:19:56.150Z,548
2022-11-05T08:20:56.183Z,588
2022-11-05T08:21:56.295Z,640
2022-11-05T08:22:56.218Z,664
2022-11-05T08:23:56.223Z,628
2022-11-05T08:24:56.524Z,568
2022-11-05T08:25:56.271Z,548
2022-11-05T08:26:56.771Z,564
2022-11-05T08:27:56.045Z,552
2022-11-05T08:28:56.070Z,560
2022-11-05T08:29:56.601Z,580
2022-11-05T08:30:56.525Z,676
2022-11-05T08:31:56.641Z,752
2022-11-05T08:32:56.661Z,752
2022-11-05T08:34:02.738Z,740
2022-11-05T08:34:56.435Z,740
2022-11-05T08:35:56.741Z,736
2022-11-05T08:36:56.750Z,724
2022-11-05T08:37:56.748Z,728
2022-11-05T08:38:56.781Z,728
2022-11-05T08:39:56.280Z,740
2022-11-05T08:40:56.540Z,740
2022-11-05T08:41:56.573Z,744
2022-11-05T08:42:57.058Z,752
2022-11-05T08:43:56.864Z,748
2022-11-05T08:44:56.683Z,736
2022-11-05T08:45:56.727Z,736
2022-11-05T08:46:56.917Z,728
2022-11-05T08:47:56.938Z,732
2022-11-05T08:48:56.965Z,736
2022-11-05T08:49:56.720Z,736
2022-11-05T08:50:56.738Z,736
2022-11-05T08:51:56.757Z,736
2022-11-05T08:52:57.025Z,740
2022-11-05T08:53:57.076Z,744
2022-11-05T08:54:56.815Z,740
2022-11-05T08:55:56.830Z,744
2022-11-05T08:56:56.596Z,744
2022-11-05T08:57:56.863Z,752
2022-11-05T08:58:57.480Z,752
2022-11-05T08:59:56.910Z,748
2022-11-05T09:01:05.122Z,748
2022-11-05T09:01:57.947Z,748
2022-11-05T09:02:56.705Z,748
2022-11-05T09:03:56.995Z,756
2022-11-05T09:04:57.016Z,760
2022-11-05T09:05:56.755Z,756
2022-11-05T09:06:57.023Z,748
2022-11-05T09:08:04.065Z,756
2022-11-05T09:08:57.333Z,756
2022-11-05T09:09:57.360Z,744
2022-11-05T09:10:57.379Z,760
2022-11-05T09:12:18.534Z,776
2022-11-05T09:12:57.489Z,776
2022-11-05T09:13:57.417Z,616
2022-11-05T09:14:57.538Z,800
2022-11-05T09:15:57.210Z,804
2022-11-05T09:16:57.220Z,800
2022-11-05T09:17:57.255Z,736
2022-11-05T09:18:57.254Z,744
2022-11-05T09:19:57.536Z,800
2022-11-05T09:20:57.573Z,836
2022-11-05T09:21:57.575Z,728
2022-11-05T09:22:57.093Z,780
2022-11-05T09:23:57.357Z,756
2022-11-05T09:24:57.361Z,760
2022-11-05T09:25:57.396Z,796
2022-11-05T09:26:57.405Z,796
2022-11-05T09:27:57.685Z,968
2022-11-05T09:28:57.707Z,852
2022-11-05T09:29:57.204Z,776
2022-11-05T09:30:58.319Z,696
2022-11-05T09:31:57.248Z,1000
2022-11-05T09:32:57.536Z,920
2022-11-05T09:33:57.277Z,880
2022-11-05T09:34:57.817Z,772
2022-11-05T09:35:57.343Z,852
2022-11-05T09:36:57.856Z,940
2022-11-05T09:38:03.688Z,824
2022-11-05T09:38:57.884Z,792
2022-11-05T09:39:57.935Z,836
2022-11-05T09:40:57.664Z,892
2022-11-05T09:41:57.744Z,964
2022-11-05T09:42:57.963Z,916
2022-11-05T09:43:57.723Z,968
2022-11-05T09:44:57.803Z,880
2022-11-05T09:45:58.014Z,1104
2022-11-05T09:46:58.168Z,1108
2022-11-05T09:47:58.046Z,772
2022-11-05T09:48:58.115Z,1020
2022-11-05T09:49:57.847Z,736
2022-11-05T09:50:57.855Z,708
2022-11-05T09:51:58.136Z,944
2022-11-05T09:52:57.900Z,1252
2022-11-05T09:53:57.905Z,1144
2022-11-05T09:54:58.191Z,1076
2022-11-05T09:55:57.685Z,1092
2022-11-05T09:56:57.974Z,1016
2022-11-05T09:57:57.727Z,1004
2022-11-05T09:58:58.264Z,980
2022-11-05T09:59:58.021Z,1024
2022-11-05T10:00:58.338Z,1212
2022-11-05T10:01:59.063Z,1544
2022-11-05T10:02:58.448Z,1128
2022-11-05T10:03:57.577Z,1088
2022-11-05T10:04:58.527Z,1132
2022-11-05T10:05:58.871Z,1468
2022-11-05T10:06:57.894Z,1556
2022-11-05T10:07:58.182Z,1160
2022-11-05T10:08:58.184Z,940
2022-11-05T10:09:58.209Z,1028
2022-11-05T10:10:58.496Z,1500
2022-11-05T10:11:58.503Z,1792
2022-11-05T10:12:58.530Z,1600
2022-11-05T10:13:58.533Z,1600
2022-11-05T10:14:58.561Z,1520
2022-11-05T10:15:58.063Z,1140
2022-11-05T10:16:58.333Z,1080
2022-11-05T10:17:58.621Z,1100
2022-11-05T10:18:58.886Z,1268
2022-11-05T10:19:58.402Z,1576
2022-11-05T10:20:58.683Z,1332
2022-11-05T10:22:13.231Z,1372
2022-11-05T10:22:58.718Z,1772
2022-11-05T10:23:58.731Z,1508
2022-11-05T10:24:58.757Z,1576
2022-11-05T10:25:58.785Z,1204
2022-11-05T10:26:58.784Z,1192
2022-11-05T10:27:58.548Z,1704
2022-11-05T10:28:58.575Z,1712
2022-11-05T10:29:58.333Z,1004
2022-11-05T10:30:58.356Z,1104
2022-11-05T10:31:58.888Z,660
2022-11-05T10:32:58.641Z,652
2022-11-05T10:33:58.921Z,660
2022-11-05T10:34:59.040Z,660
2022-11-05T10:35:58.702Z,732
2022-11-05T10:36:58.730Z,680
2022-11-05T10:37:58.747Z,792
2022-11-05T10:38:58.765Z,756
2022-11-05T10:39:58.928Z,956
2022-11-05T10:40:58.800Z,900
2022-11-05T10:41:58.570Z,952
2022-11-05T10:42:58.847Z,904
2022-11-05T10:43:58.866Z,1016
2022-11-05T10:44:58.719Z,884
2022-11-05T10:45:58.890Z,1040
2022-11-05T10:46:58.914Z,1464
2022-11-05T10:47:58.693Z,1460
2022-11-05T10:48:59.208Z,1392
2022-11-05T10:49:58.687Z,1804
2022-11-05T10:50:59.588Z,1560
2022-11-05T10:51:59.025Z,1324
2022-11-05T10:52:59.035Z,1916
2022-11-05T10:54:06.805Z,2448
2022-11-05T10:54:59.063Z,2272
2022-11-05T10:55:59.345Z,2236
2022-11-05T10:56:59.362Z,2104
2022-11-05T10:57:59.383Z,2100
2022-11-05T10:58:59.410Z,2116
2022-11-05T10:59:58.907Z,1992
2022-11-05T11:00:59.679Z,2024
2022-11-05T11:01:59.965Z,1668
2022-11-05T11:02:59.491Z,1448
2022-11-05T11:03:59.492Z,1560
2022-11-05T11:04:59.517Z,1584
2022-11-05T11:05:59.281Z,2280
2022-11-05T11:06:59.658Z,2352
2022-11-05T11:07:59.320Z,2332
2022-11-05T11:08:59.334Z,2248
2022-11-05T11:09:59.636Z,2328
2022-11-05T11:10:59.151Z,2232
2022-11-05T11:11:59.646Z,2436
2022-11-05T11:12:59.423Z,2588
2022-11-05T11:13:59.713Z,2624
2022-11-05T11:14:59.452Z,2728
2022-11-05T11:15:59.731Z,2584
2022-11-05T11:16:59.657Z,2368
2022-11-05T11:17:59.780Z,2216
2022-11-05T11:18:59.292Z,2200
2022-11-05T11:19:59.800Z,2168
2022-11-05T11:20:59.563Z,2012
2022-11-05T11:21:59.837Z,2040
2022-11-05T11:23:00.148Z,1992
2022-11-05T11:23:59.913Z,1544
2022-11-05T11:24:59.641Z,1368
2022-11-05T11:25:59.645Z,1324
2022-11-05T11:26:59.418Z,1160
2022-11-05T11:27:59.710Z,1280
2022-11-05T11:28:59.977Z,1200
2022-11-05T11:29:59.730Z,1044
2022-11-05T11:30:59.501Z,944
2022-11-05T11:32:00.035Z,1032
2022-11-05T11:32:59.787Z,1136
2022-11-05T11:33:59.814Z,1280
2022-11-05T11:34:59.844Z,1292
2022-11-05T11:35:59.850Z,1760
2022-11-05T11:36:59.620Z,1848
2022-11-05T11:38:00.143Z,1352
2022-11-05T11:39:00.291Z,1212
2022-11-05T11:39:59.929Z,1116
2022-11-05T11:41:00.249Z,1528
2022-11-05T11:42:00.129Z,1616
2022-11-05T11:43:00.239Z,2256
2022-11-05T11:43:59.742Z,3004
2022-11-05T11:45:00.229Z,2828
2022-11-05T11:46:14.988Z,2736
2022-11-05T11:47:00.315Z,2956
2022-11-05T11:48:00.104Z,3036
2022-11-05T11:48:59.862Z,2840
2022-11-05T11:50:00.395Z,2640
2022-11-05T11:51:00.401Z,3068
2022-11-05T11:52:00.413Z,3248
2022-11-05T11:52:59.922Z,2660
2022-11-05T11:53:59.958Z,2404
2022-11-05T11:55:00.567Z,2240
2022-11-05T11:56:00.505Z,2068
2022-11-05T11:57:00.519Z,2108
2022-11-05T11:58:00.539Z,1988
2022-11-05T11:59:00.303Z,2456
2022-11-05T12:00:16.049Z,1816
2022-11-05T12:01:00.600Z,1688
2022-11-05T12:02:00.842Z,1812
2022-11-05T12:03:07.092Z,2136
2022-11-05T12:04:00.671Z,2420
2022-11-05T12:05:00.424Z,2240
2022-11-05T12:06:00.692Z,2088
2022-11-05T12:07:00.462Z,1552
2022-11-05T12:08:00.608Z,1156
2022-11-05T12:09:11.915Z,1404
2022-11-05T12:10:00.519Z,1624
2022-11-05T12:11:00.901Z,1636
2022-11-05T12:12:00.554Z,1560
2022-11-05T12:13:00.318Z,1368
2022-11-05T12:14:00.605Z,1500
2022-11-05T12:15:01.039Z,1868
2022-11-05T12:16:00.634Z,2240
2022-11-05T12:17:00.639Z,2252
2022-11-05T12:18:00.429Z,1744
2022-11-05T12:19:00.954Z,1212
2022-11-05T12:20:00.221Z,1188
2022-11-05T12:21:05.294Z,1156
2022-11-05T12:22:00.491Z,1188
2022-11-05T12:23:01.039Z,1208
2022-11-05T12:24:00.784Z,1012
2022-11-05T12:25:01.063Z,972
2022-11-05T12:26:00.842Z,1168
2022-11-05T12:27:01.238Z,1264
2022-11-05T12:28:00.882Z,1252
2022-11-05T12:29:24.721Z,1256
2022-11-05T12:30:00.933Z,936
2022-11-05T12:31:00.935Z,1148
2022-11-05T12:32:00.692Z,1224
2022-11-05T12:33:01.470Z,1516
2022-11-05T12:34:00.986Z,1008
2022-11-05T12:35:01.253Z,1348
2022-11-05T12:36:04.947Z,1384
2022-11-05T12:37:01.459Z,1200
2022-11-05T12:38:01.070Z,1132
2022-11-05T12:39:00.835Z,1376
2022-11-05T12:40:01.292Z,832
2022-11-05T12:41:01.127Z,820
2022-11-05T12:42:01.387Z,852
2022-11-05T12:43:01.510Z,800
2022-11-05T12:44:00.957Z,824
2022-11-05T12:45:01.410Z,828
2022-11-05T12:46:01.504Z,868
2022-11-05T12:47:01.237Z,1344
2022-11-05T12:48:01.509Z,884
2022-11-05T12:49:01.026Z,892
2022-11-05T12:50:01.296Z,988
2022-11-05T12:51:01.590Z,1224
2022-11-05T12:52:01.084Z,1004
2022-11-05T12:53:01.611Z,1496
2022-11-05T12:54:01.406Z,1160
2022-11-05T12:55:01.672Z,988
2022-11-05T12:56:01.428Z,940
2022-11-05T12:57:01.450Z,848
2022-11-05T12:58:01.474Z,800
2022-11-05T12:59:01.842Z,928
2022-11-05T13:00:01.243Z,1676
2022-11-05T13:01:01.818Z,1904
2022-11-05T13:02:02.194Z,2020
2022-11-05T13:03:01.294Z,1868
2022-11-05T13:04:01.607Z,1912
2022-11-05T13:05:01.852Z,1568
2022-11-05T13:06:08.592Z,1796
2022-11-05T13:07:01.911Z,1864
2022-11-05T13:08:01.916Z,1688
2022-11-05T13:09:01.691Z,1152
2022-11-05T13:10:01.434Z,880
2022-11-05T13:11:01.722Z,724
2022-11-05T13:12:01.742Z,696
2022-11-05T13:13:01.505Z,696
2022-11-05T13:14:01.765Z,692
2022-11-05T13:15:02.238Z,620
2022-11-05T13:16:01.814Z,592
2022-11-05T13:17:02.092Z,560
2022-11-05T13:18:01.606Z,568
2022-11-05T13:19:01.871Z,560
2022-11-05T13:20:01.897Z,580
2022-11-05T13:21:02.197Z,588
2022-11-05T13:22:01.665Z,592
2022-11-05T13:23:01.701Z,612
2022-11-05T13:24:01.729Z,660
2022-11-05T13:25:01.998Z,716
2022-11-05T13:26:02.273Z,732
2022-11-05T13:27:02.034Z,756
2022-11-05T13:28:02.305Z,796
2022-11-05T13:29:02.349Z,840
2022-11-05T13:30:02.336Z,888
2022-11-05T13:31:02.474Z,940
2022-11-05T13:32:01.881Z,992
2022-11-05T13:33:01.899Z,1020
2022-11-05T13:34:01.648Z,1024
2022-11-05T13:35:02.450Z,1028
2022-11-05T13:36:01.939Z,1016
2022-11-05T13:37:02.246Z,1028
2022-11-05T13:38:01.989Z,1036
2022-11-05T13:39:02.629Z,1088
2022-11-05T13:40:01.772Z,1156
2022-11-05T13:41:02.316Z,1244
2022-11-05T13:42:02.356Z,1312
2022-11-05T13:43:02.356Z,1356
2022-11-05T13:44:02.361Z,1388
2022-11-05T13:45:02.958Z,1400
2022-11-05T13:46:09.319Z,1376
2022-11-05T13:47:02.937Z,1340
2022-11-05T13:48:02.695Z,1296
2022-11-05T13:49:02.725Z,1268
2022-11-05T13:50:02.497Z,1284
2022-11-05T13:51:02.511Z,1304
2022-11-05T13:52:02.258Z,1288
2022-11-05T13:53:02.890Z,1276
2022-11-05T13:54:02.304Z,1280
2022-11-05T13:55:02.590Z,1272
2022-11-05T13:56:02.339Z,1252
2022-11-05T13:57:02.925Z,1236
2022-11-05T13:58:02.650Z,1220
2022-11-05T13:59:02.910Z,1196
2022-11-05T14:00:02.704Z,1176
2022-11-05T14:01:03.021Z,1148
2022-11-05T14:02:03.737Z,1112
2022-11-05T14:03:03.045Z,1072
2022-11-05T14:04:02.502Z,1060
2022-11-05T14:05:07.937Z,1072
2022-11-05T14:06:02.908Z,1084